Time;durP1;ratioP1;P1;durP2;ratioP2;P2;SDS_P1;SDS_P2;PMS_P1;PMS_P2;Temp;Humidity;BMP_temperature;BMP_pressure;BME280_temperature;BME280_humidity;BME280_pressure;Samples;Min_cycle;Max_cycle;Signal;HPM_P1;HPM_P2
2021/08/04 00:00:33;;;;;;;1.98;1.73;;;;;;;;;;5073561;28;20036;-80
2021/08/04 00:02:59;;;;;;;1.80;1.60;;;;;;;;;;5075811;28;20035;-80
2021/08/04 00:05:25;;;;;;;2.08;1.67;;;;;;;;;;5075308;28;20032;-80
2021/08/04 00:07:51;;;;;;;1.73;1.33;;;;;;;;;;5075444;28;20525;-80
2021/08/04 00:10:17;;;;;;;1.88;1.30;;;;;;;;;;5076413;28;20035;-80
2021/08/04 00:12:43;;;;;;;1.77;1.60;;;;;;;;;;5075058;28;20024;-80
2021/08/04 00:15:11;;;;;;;1.10;1.08;;;;;;;;;;5076095;28;20017;-80
2021/08/04 00:17:37;;;;;;;3.25;1.60;;;;;;;;;;5082438;28;20028;-80
2021/08/04 00:20:04;;;;;;;2.00;1.70;;;;;;;;;;5087680;28;20480;-80
2021/08/04 00:22:30;;;;;;;2.60;1.67;;;;;;;;;;5099462;28;20405;-80
2021/08/04 00:24:56;;;;;;;1.67;1.58;;;;;;;;;;5098815;28;20400;-80
2021/08/04 00:27:24;;;;;;;1.75;1.65;;;;;;;;;;5098439;28;20039;-79
2021/08/04 00:29:50;;;;;;;3.38;1.90;;;;;;;;;;5098507;28;20123;-80
2021/08/04 00:32:16;;;;;;;1.95;1.33;;;;;;;;;;5080950;28;20482;-80
2021/08/04 00:34:42;;;;;;;1.75;1.50;;;;;;;;;;5079305;28;20060;-77
2021/08/04 00:37:08;;;;;;;1.75;1.65;;;;;;;;;;5088333;28;20032;-77
2021/08/04 00:39:34;;;;;;;2.13;1.70;;;;;;;;;;5080608;28;20038;-76
2021/08/04 00:42:00;;;;;;;3.22;1.80;;;;;;;;;;5078384;28;20032;-78
2021/08/04 00:44:26;;;;;;;2.63;1.70;;;;;;;;;;5077900;28;20084;-77
2021/08/04 00:46:52;;;;;;;1.70;1.60;;;;;;;;;;5077327;28;20429;-77
2021/08/04 00:49:18;;;;;;;3.30;1.80;;;;;;;;;;5088172;28;20040;-77
2021/08/04 00:51:44;;;;;;;1.70;1.60;;;;;;;;;;5097226;28;20016;-79
2021/08/04 00:54:10;;;;;;;2.92;2.10;;;;;;;;;;5098291;28;20030;-80
2021/08/04 00:56:37;;;;;;;1.60;1.50;;;;;;;;;;5099709;28;20115;-80
2021/08/04 00:59:03;;;;;;;3.40;1.50;;;;;;;;;;5087083;28;20096;-81
2021/08/04 01:01:34;;;;;;;1.63;1.48;;;;;;;;;;5095855;28;20127;-80
2021/08/04 01:04:11;;;;;;;1.60;1.50;;;;;;;;;;5099446;28;20407;-80
2021/08/04 01:06:56;;;;;;;1.80;1.52;;;;;;;;;;5098356;28;20024;-79
2021/08/04 01:09:23;;;;;;;1.50;1.40;;;;;;;;;;5097406;28;20093;-79
2021/08/04 01:11:57;;;;;;;2.08;1.73;;;;;;;;;;5096138;28;20024;-79
2021/08/04 01:14:25;;;;;;;1.88;1.77;;;;;;;;;;5095248;28;20024;-78
2021/08/04 01:16:52;;;;;;;2.15;1.80;;;;;;;;;;5088703;28;20025;-79
2021/08/04 01:19:37;;;;;;;1.80;1.70;;;;;;;;;;5088228;28;20020;-78
2021/08/04 01:22:10;;;;;;;1.77;1.60;;;;;;;;;;5094292;28;20028;-79
2021/08/04 01:24:45;;;;;;;2.03;1.42;;;;;;;;;;5096378;28;20034;-79
2021/08/04 01:27:13;;;;;;;2.00;1.90;;;;;;;;;;5097724;28;20429;-80
2021/08/04 01:29:40;;;;;;;2.05;1.73;;;;;;;;;;5100216;28;20027;-79
2021/08/04 01:32:06;;;;;;;2.13;1.80;;;;;;;;;;5082106;28;20032;-79
2021/08/04 01:34:35;;;;;;;4.45;2.15;;;;;;;;;;5077209;28;20051;-79
2021/08/04 01:37:02;;;;;;;3.60;2.38;;;;;;;;;;5076853;28;20029;-79
2021/08/04 01:39:28;;;;;;;2.92;2.08;;;;;;;;;;5076283;28;20115;-79
2021/08/04 01:41:56;;;;;;;2.63;1.75;;;;;;;;;;5087064;28;20392;-80
2021/08/04 01:44:22;;;;;;;1.73;1.63;;;;;;;;;;5096545;28;20038;-79
2021/08/04 01:46:48;;;;;;;2.42;1.95;;;;;;;;;;5089542;28;20029;-79
2021/08/04 01:49:15;;;;;;;1.70;1.60;;;;;;;;;;5086098;28;20123;-80
2021/08/04 01:51:42;;;;;;;2.03;1.65;;;;;;;;;;5095868;28;20479;-80
2021/08/04 01:54:09;;;;;;;2.50;1.80;;;;;;;;;;5096164;28;20031;-80
2021/08/04 01:56:35;;;;;;;2.08;1.75;;;;;;;;;;5096839;28;20111;-80
2021/08/04 01:59:01;;;;;;;2.78;2.30;;;;;;;;;;5096573;28;20062;-80
2021/08/04 02:01:28;;;;;;;2.60;2.00;;;;;;;;;;5094099;28;20043;-79
2021/08/04 02:03:54;;;;;;;2.88;1.90;;;;;;;;;;5079466;28;20025;-78
2021/08/04 02:06:38;;;;;;;2.25;1.80;;;;;;;;;;5082926;28;20025;-77
2021/08/04 02:09:27;;;;;;;1.80;1.70;;;;;;;;;;5079327;28;20024;-79
2021/08/04 02:12:02;;;;;;;2.15;1.80;;;;;;;;;;5071844;28;20044;-79
2021/08/04 02:14:31;;;;;;;1.77;1.67;;;;;;;;;;5096221;28;20034;-79
2021/08/04 02:17:06;;;;;;;2.28;1.83;;;;;;;;;;5086986;28;20051;-79
2021/08/04 02:19:37;;;;;;;1.85;1.73;;;;;;;;;;5086117;28;20216;-78
2021/08/04 02:22:29;;;;;;;1.75;1.50;;;;;;;;;;5094358;28;20036;-77
2021/08/04 02:25:28;;;;;;;2.15;1.95;;;;;;;;;;5037145;28;20059;-79
2021/08/04 02:27:54;;;;;;;2.03;1.83;;;;;;;;;;5030591;28;20040;-79
2021/08/04 02:30:21;;;;;;;1.65;1.55;;;;;;;;;;5074825;28;20025;-77
2021/08/04 02:32:47;;;;;;;1.95;1.80;;;;;;;;;;5078169;28;20024;-77
2021/08/04 02:35:13;;;;;;;1.73;1.60;;;;;;;;;;5080211;28;20117;-77
2021/08/04 02:37:39;;;;;;;1.75;1.60;;;;;;;;;;5077263;28;20100;-79
2021/08/04 02:40:06;;;;;;;2.10;1.65;;;;;;;;;;5075894;28;20020;-79
2021/08/04 02:42:33;;;;;;;2.00;1.77;;;;;;;;;;5075135;28;20072;-80
2021/08/04 02:44:59;;;;;;;1.92;1.67;;;;;;;;;;5095489;28;20024;-79
2021/08/04 02:47:25;;;;;;;1.70;1.60;;;;;;;;;;5095188;28;20074;-79
2021/08/04 02:49:51;;;;;;;1.85;1.75;;;;;;;;;;5104142;28;20075;-77
2021/08/04 02:52:18;;;;;;;1.98;1.75;;;;;;;;;;5112816;28;20039;-80
2021/08/04 02:54:45;;;;;;;1.40;1.30;;;;;;;;;;5113085;28;20027;-78
2021/08/04 02:57:11;;;;;;;1.95;1.75;;;;;;;;;;5101656;28;20024;-79
2021/08/04 02:59:37;;;;;;;2.13;1.92;;;;;;;;;;5096295;28;20588;-78
2021/08/04 03:02:03;;;;;;;1.73;1.58;;;;;;;;;;5096543;28;20035;-78
2021/08/04 03:04:29;;;;;;;2.42;2.08;;;;;;;;;;5087844;28;20024;-79
2021/08/04 03:06:55;;;;;;;1.85;1.75;;;;;;;;;;5076350;28;20438;-79
2021/08/04 03:09:21;;;;;;;2.28;2.08;;;;;;;;;;5075238;28;20025;-78
2021/08/04 03:11:48;;;;;;;2.08;1.88;;;;;;;;;;5075815;28;20036;-79
2021/08/04 03:14:14;;;;;;;2.08;1.88;;;;;;;;;;5079231;28;20391;-79
2021/08/04 03:16:40;;;;;;;3.92;2.08;;;;;;;;;;5090337;28;20033;-78
2021/08/04 03:19:06;;;;;;;1.85;1.73;;;;;;;;;;5090172;28;20032;-79
2021/08/04 03:21:32;;;;;;;2.75;2.08;;;;;;;;;;5074964;28;20037;-78
2021/08/04 03:23:58;;;;;;;2.67;2.05;;;;;;;;;;5075781;28;20499;-79
2021/08/04 03:26:24;;;;;;;2.20;1.50;;;;;;;;;;5077894;28;20052;-77
2021/08/04 03:28:50;;;;;;;2.00;1.77;;;;;;;;;;5079591;28;20466;-79
2021/08/04 03:31:16;;;;;;;2.20;1.90;;;;;;;;;;5083286;28;20020;-79
2021/08/04 03:33:42;;;;;;;1.65;1.55;;;;;;;;;;5074354;28;20158;-79
2021/08/04 03:36:09;;;;;;;1.70;1.60;;;;;;;;;;5089184;28;20032;-79
2021/08/04 03:38:35;;;;;;;1.95;1.77;;;;;;;;;;5095502;28;20043;-79
2021/08/04 03:41:01;;;;;;;2.10;1.80;;;;;;;;;;5095077;28;20055;-79
2021/08/04 03:43:27;;;;;;;1.85;1.67;;;;;;;;;;5097512;28;20097;-80
2021/08/04 03:45:54;;;;;;;1.95;1.75;;;;;;;;;;5087619;28;20036;-81
2021/08/04 03:48:21;;;;;;;1.80;1.60;;;;;;;;;;5078438;28;20393;-80
2021/08/04 03:50:47;;;;;;;3.42;2.30;;;;;;;;;;5077213;28;20073;-81
2021/08/04 03:53:13;;;;;;;2.50;1.95;;;;;;;;;;5079331;28;20044;-79
2021/08/04 03:55:39;;;;;;;2.00;1.80;;;;;;;;;;5088332;28;20038;-76
2021/08/04 03:58:05;;;;;;;1.65;1.52;;;;;;;;;;5102219;28;20032;-80
2021/08/04 04:00:31;;;;;;;2.40;1.98;;;;;;;;;;5083660;28;20028;-78
2021/08/04 04:02:57;;;;;;;3.03;1.88;;;;;;;;;;5081810;28;20085;-79
2021/08/04 04:05:23;;;;;;;3.35;2.38;;;;;;;;;;5080641;28;20025;-79
2021/08/04 04:07:49;;;;;;;2.97;1.77;;;;;;;;;;5082665;28;20039;-79
2021/08/04 04:10:15;;;;;;;2.97;2.30;;;;;;;;;;5080657;28;20515;-79
2021/08/04 04:12:41;;;;;;;2.30;2.10;;;;;;;;;;5078996;28;20119;-79
2021/08/04 04:15:08;;;;;;;2.42;2.20;;;;;;;;;;5079364;28;20060;-80
2021/08/04 04:17:34;;;;;;;3.42;1.42;;;;;;;;;;5084263;28;20028;-79
2021/08/04 04:20:00;;;;;;;1.92;1.63;;;;;;;;;;5091414;28;20043;-79
2021/08/04 04:22:26;;;;;;;2.10;1.90;;;;;;;;;;5098877;28;20032;-79
2021/08/04 04:24:52;;;;;;;1.70;1.60;;;;;;;;;;5099773;28;20028;-79
2021/08/04 04:27:18;;;;;;;2.08;1.80;;;;;;;;;;5098794;28;20078;-80
2021/08/04 04:29:44;;;;;;;2.30;2.10;;;;;;;;;;5100634;28;20024;-78
2021/08/04 04:32:10;;;;;;;2.50;2.10;;;;;;;;;;5098213;28;20119;-78
2021/08/04 04:34:37;;;;;;;2.05;1.85;;;;;;;;;;5098474;28;20076;-79
2021/08/04 04:37:04;;;;;;;2.10;1.90;;;;;;;;;;5093305;28;20048;-78
2021/08/04 04:39:30;;;;;;;2.90;1.70;;;;;;;;;;5079368;28;20093;-79
2021/08/04 04:41:56;;;;;;;2.20;2.00;;;;;;;;;;5077833;28;20324;-80
2021/08/04 04:44:26;;;;;;;3.30;1.83;;;;;;;;;;5079144;28;20037;-80
2021/08/04 04:46:52;;;;;;;2.28;2.08;;;;;;;;;;5097459;28;20036;-80
2021/08/04 04:49:18;;;;;;;1.92;1.83;;;;;;;;;;5105184;28;20130;-80
2021/08/04 04:51:44;;;;;;;1.70;1.60;;;;;;;;;;5095607;28;20021;-79
2021/08/04 04:54:10;;;;;;;1.73;1.63;;;;;;;;;;5096670;28;20028;-79
2021/08/04 04:56:36;;;;;;;1.80;1.70;;;;;;;;;;5096476;28;20059;-79
2021/08/04 04:59:02;;;;;;;1.92;1.60;;;;;;;;;;5081451;28;20037;-79
2021/08/04 05:01:28;;;;;;;2.28;1.73;;;;;;;;;;5077678;28;20097;-79
2021/08/04 05:03:54;;;;;;;1.80;1.63;;;;;;;;;;5083859;28;20024;-79
2021/08/04 05:06:20;;;;;;;2.38;1.90;;;;;;;;;;5087299;28;20031;-79
2021/08/04 05:08:47;;;;;;;1.55;1.40;;;;;;;;;;5093393;28;20020;-79
2021/08/04 05:11:13;;;;;;;2.13;1.60;;;;;;;;;;5091874;28;20056;-79
2021/08/04 05:13:39;;;;;;;1.90;1.65;;;;;;;;;;5085944;28;20029;-80
2021/08/04 05:16:08;;;;;;;2.05;1.70;;;;;;;;;;5077595;28;20377;-79
2021/08/04 05:18:34;;;;;;;1.92;1.73;;;;;;;;;;5086195;28;20020;-79
2021/08/04 05:21:00;;;;;;;2.35;1.33;;;;;;;;;;5093317;28;20089;-80
2021/08/04 05:23:26;;;;;;;1.92;1.73;;;;;;;;;;5089452;28;20089;-80
2021/08/04 05:25:52;;;;;;;1.60;1.50;;;;;;;;;;5077081;28;20012;-79
2021/08/04 05:28:18;;;;;;;1.42;1.30;;;;;;;;;;5080848;28;20027;-79
2021/08/04 05:30:44;;;;;;;1.40;1.30;;;;;;;;;;5096916;28;20054;-82
2021/08/04 05:33:10;;;;;;;1.50;1.33;;;;;;;;;;5091931;28;20035;-80
2021/08/04 05:35:36;;;;;;;1.30;1.25;;;;;;;;;;5086400;28;20108;-80
2021/08/04 05:38:02;;;;;;;1.35;1.25;;;;;;;;;;5079139;28;20045;-81
2021/08/04 05:40:28;;;;;;;1.10;1.10;;;;;;;;;;5081444;28;20467;-80
2021/08/04 05:42:57;;;;;;;1.70;1.38;;;;;;;;;;5093928;28;20029;-80
2021/08/04 05:45:23;;;;;;;1.60;1.50;;;;;;;;;;5091257;28;20028;-79
2021/08/04 05:47:49;;;;;;;1.65;1.30;;;;;;;;;;5095560;28;20106;-79
2021/08/04 05:50:15;;;;;;;1.50;1.40;;;;;;;;;;5091350;28;20050;-79
2021/08/04 05:52:41;;;;;;;1.65;1.50;;;;;;;;;;5087847;28;20080;-79
2021/08/04 05:55:08;;;;;;;1.50;1.40;;;;;;;;;;5082269;28;20343;-79
2021/08/04 05:57:34;;;;;;;1.50;1.40;;;;;;;;;;5095321;28;20035;-80
2021/08/04 06:00:00;;;;;;;1.30;1.20;;;;;;;;;;5099685;28;20032;-79
2021/08/04 06:02:26;;;;;;;0.98;0.98;;;;;;;;;;5100374;28;20096;-79
2021/08/04 06:04:52;;;;;;;1.58;1.48;;;;;;;;;;5099183;28;20043;-79
2021/08/04 06:07:18;;;;;;;1.70;1.30;;;;;;;;;;5097933;28;20016;-79
2021/08/04 06:09:44;;;;;;;1.40;1.30;;;;;;;;;;5089935;28;20024;-79
2021/08/04 06:12:11;;;;;;;4.03;1.20;;;;;;;;;;5097319;28;20071;-79
2021/08/04 06:14:37;;;;;;;1.42;1.27;;;;;;;;;;5099143;28;20157;-79
2021/08/04 06:17:03;;;;;;;1.77;1.08;;;;;;;;;;5089806;28;20020;-79
2021/08/04 06:19:29;;;;;;;1.23;1.05;;;;;;;;;;5094163;28;20020;-79
2021/08/04 06:21:55;;;;;;;1.10;1.10;;;;;;;;;;5077696;28;20036;-78
2021/08/04 06:24:21;;;;;;;1.30;1.20;;;;;;;;;;5075675;28;20025;-80
2021/08/04 06:26:47;;;;;;;1.85;1.20;;;;;;;;;;5078307;28;20040;-79
2021/08/04 06:29:13;;;;;;;1.15;1.10;;;;;;;;;;5080551;28;20069;-79
2021/08/04 06:31:40;;;;;;;2.35;1.20;;;;;;;;;;5094713;28;20032;-79
2021/08/04 06:34:06;;;;;;;1.40;1.30;;;;;;;;;;5089967;28;20025;-79
2021/08/04 06:36:32;;;;;;;2.65;1.30;;;;;;;;;;5090607;28;20057;-78
2021/08/04 06:38:58;;;;;;;4.13;1.40;;;;;;;;;;5086436;28;20560;-79
2021/08/04 06:41:24;;;;;;;1.85;1.00;;;;;;;;;;5085063;28;20106;-80
2021/08/04 06:43:50;;;;;;;1.17;1.08;;;;;;;;;;5086627;28;20024;-79
2021/08/04 06:46:16;;;;;;;1.73;1.63;;;;;;;;;;5099184;28;20107;-79
2021/08/04 06:48:43;;;;;;;1.10;1.00;;;;;;;;;;5094733;28;20016;-79
2021/08/04 06:51:11;;;;;;;4.22;1.45;;;;;;;;;;5104681;28;20035;-79
2021/08/04 06:53:37;;;;;;;1.02;0.90;;;;;;;;;;5098691;28;20027;-79
2021/08/04 06:56:03;;;;;;;0.90;0.90;;;;;;;;;;5092663;28;20166;-78
2021/08/04 06:58:29;;;;;;;1.63;1.02;;;;;;;;;;5093556;28;20084;-77
2021/08/04 07:00:55;;;;;;;1.15;0.88;;;;;;;;;;5085228;28;20083;-78
2021/08/04 07:03:22;;;;;;;2.00;1.15;;;;;;;;;;5100361;28;20039;-79
2021/08/04 07:05:50;;;;;;;1.13;1.08;;;;;;;;;;5089574;28;20012;-77
2021/08/04 07:08:18;;;;;;;1.45;1.20;;;;;;;;;;5083577;28;20115;-78
2021/08/04 07:10:44;;;;;;;0.95;0.95;;;;;;;;;;5088215;28;20039;-79
2021/08/04 07:13:10;;;;;;;2.90;1.02;;;;;;;;;;5086927;28;20054;-78
2021/08/04 07:15:36;;;;;;;1.27;1.08;;;;;;;;;;5090310;28;20104;-80
2021/08/04 07:18:09;;;;;;;2.67;1.08;;;;;;;;;;5091947;28;20032;-79
2021/08/04 07:20:35;;;;;;;1.23;1.13;;;;;;;;;;5094818;28;20036;-79
2021/08/04 07:23:01;;;;;;;1.00;1.00;;;;;;;;;;5082196;28;20040;-81
2021/08/04 07:25:27;;;;;;;1.40;1.30;;;;;;;;;;5084579;28;20028;-80
2021/08/04 07:27:56;;;;;;;0.85;0.77;;;;;;;;;;5083626;28;20028;-80
2021/08/04 07:30:24;;;;;;;1.30;1.17;;;;;;;;;;5087812;28;20021;-79
2021/08/04 07:32:50;;;;;;;0.98;0.90;;;;;;;;;;5088439;28;20074;-79
2021/08/04 07:35:16;;;;;;;1.40;0.93;;;;;;;;;;5098389;28;20417;-80
2021/08/04 07:37:44;;;;;;;0.90;0.90;;;;;;;;;;5102433;28;20032;-79
2021/08/04 07:40:10;;;;;;;0.90;0.90;;;;;;;;;;5082808;28;20017;-79
2021/08/04 07:42:36;;;;;;;1.38;0.95;;;;;;;;;;5082749;28;20023;-79
2021/08/04 07:45:03;;;;;;;2.10;0.90;;;;;;;;;;5084140;28;20357;-78
2021/08/04 07:47:29;;;;;;;0.80;0.70;;;;;;;;;;5089894;28;20024;-79
2021/08/04 07:49:55;;;;;;;2.13;1.10;;;;;;;;;;5092530;28;20024;-80
2021/08/04 07:52:21;;;;;;;0.77;0.77;;;;;;;;;;5099062;28;20024;-79
2021/08/04 07:54:47;;;;;;;1.10;1.00;;;;;;;;;;5091980;28;20056;-79
2021/08/04 07:57:13;;;;;;;2.53;1.08;;;;;;;;;;5082666;28;20031;-79
2021/08/04 07:59:39;;;;;;;1.83;0.80;;;;;;;;;;5089452;28;20042;-79
2021/08/04 08:02:05;;;;;;;1.45;1.00;;;;;;;;;;5094984;28;20105;-78
2021/08/04 08:04:32;;;;;;;0.88;0.88;;;;;;;;;;5089881;28;20122;-79
2021/08/04 08:06:58;;;;;;;0.75;0.75;;;;;;;;;;5106669;28;20059;-79
2021/08/04 08:09:25;;;;;;;0.80;0.80;;;;;;;;;;5106474;28;20028;-80
2021/08/04 08:11:58;;;;;;;1.17;1.13;;;;;;;;;;5104030;28;20035;-80
2021/08/04 08:14:25;;;;;;;1.20;1.20;;;;;;;;;;5111516;28;20031;-79
2021/08/04 08:16:51;;;;;;;0.90;0.90;;;;;;;;;;5101342;28;20021;-78
2021/08/04 08:19:17;;;;;;;0.90;0.90;;;;;;;;;;5091672;28;20024;-79
2021/08/04 08:21:43;;;;;;;1.75;0.93;;;;;;;;;;5098997;28;20066;-79
2021/08/04 08:24:09;;;;;;;0.90;0.88;;;;;;;;;;5088299;28;20699;-79
2021/08/04 08:26:36;;;;;;;1.63;0.95;;;;;;;;;;5086197;28;20033;-79
2021/08/04 08:29:02;;;;;;;1.70;1.00;;;;;;;;;;5086025;28;20036;-78
2021/08/04 08:31:29;;;;;;;1.00;0.90;;;;;;;;;;5082020;28;20104;-78
2021/08/04 08:33:59;;;;;;;1.25;1.00;;;;;;;;;;5084834;28;20021;-79
2021/08/04 08:36:25;;;;;;;1.70;0.90;;;;;;;;;;5096360;28;20107;-81
2021/08/04 08:38:51;;;;;;;0.70;0.70;;;;;;;;;;5102824;28;20039;-78
2021/08/04 08:41:20;;;;;;;1.65;0.77;;;;;;;;;;5102006;28;20032;-78
2021/08/04 08:43:46;;;;;;;0.68;0.68;;;;;;;;;;5087117;28;20063;-79
2021/08/04 08:46:12;;;;;;;0.90;0.90;;;;;;;;;;5081133;28;20052;-79
2021/08/04 08:48:42;;;;;;;0.80;0.70;;;;;;;;;;5089200;28;20520;-79
2021/08/04 08:51:08;;;;;;;0.65;0.65;;;;;;;;;;5105723;28;20067;-79
2021/08/04 08:53:36;;;;;;;0.93;0.93;;;;;;;;;;5106821;28;20031;-79
2021/08/04 08:56:05;;;;;;;0.90;0.90;;;;;;;;;;5102291;28;20112;-79
2021/08/04 08:58:31;;;;;;;1.20;0.65;;;;;;;;;;5101462;28;20016;-78
2021/08/04 09:00:57;;;;;;;0.77;0.75;;;;;;;;;;5100274;28;20394;-80
2021/08/04 09:03:23;;;;;;;2.72;0.57;;;;;;;;;;5098549;28;20116;-78
2021/08/04 09:05:50;;;;;;;0.65;0.65;;;;;;;;;;5079893;28;20016;-78
2021/08/04 09:08:29;;;;;;;0.90;0.90;;;;;;;;;;5080157;28;20035;-79
2021/08/04 09:11:08;;;;;;;0.90;0.90;;;;;;;;;;5080844;28;20490;-79
2021/08/04 09:13:36;;;;;;;1.05;1.00;;;;;;;;;;5083072;28;20032;-79
2021/08/04 09:16:09;;;;;;;1.73;1.10;;;;;;;;;;5099510;28;20028;-79
2021/08/04 09:18:40;;;;;;;1.30;1.20;;;;;;;;;;5092742;28;20111;-79
2021/08/04 09:21:06;;;;;;;1.00;0.90;;;;;;;;;;5084600;28;20203;-79
2021/08/04 09:23:32;;;;;;;1.58;0.95;;;;;;;;;;5084743;28;20512;-79
2021/08/04 09:26:04;;;;;;;2.15;0.93;;;;;;;;;;5100921;28;20498;-78
2021/08/04 09:28:31;;;;;;;0.80;0.80;;;;;;;;;;5104335;28;20028;-79
2021/08/04 09:31:01;;;;;;;0.90;0.90;;;;;;;;;;5103505;28;20049;-78
2021/08/04 09:33:33;;;;;;;1.23;1.13;;;;;;;;;;5103699;28;20053;-80
2021/08/04 09:36:00;;;;;;;1.48;0.90;;;;;;;;;;5101890;28;20032;-79
2021/08/04 09:38:26;;;;;;;1.50;0.90;;;;;;;;;;5102400;28;20065;-80
2021/08/04 09:41:11;;;;;;;0.70;0.70;;;;;;;;;;5101668;28;20024;-80
2021/08/04 09:43:37;;;;;;;2.75;1.00;;;;;;;;;;5111051;28;20067;-79
2021/08/04 09:46:03;;;;;;;1.35;0.90;;;;;;;;;;5114509;28;20055;-78
2021/08/04 09:48:29;;;;;;;1.02;0.80;;;;;;;;;;5094823;28;20035;-79
2021/08/04 09:50:57;;;;;;;0.60;0.60;;;;;;;;;;5098669;28;20054;-80
2021/08/04 09:53:25;;;;;;;0.80;0.80;;;;;;;;;;5100969;28;20031;-79
2021/08/04 09:56:06;;;;;;;1.10;1.10;;;;;;;;;;5099940;28;20063;-79
2021/08/04 09:58:33;;;;;;;0.88;0.80;;;;;;;;;;5098435;28;20436;-78
2021/08/04 10:01:02;;;;;;;0.93;0.90;;;;;;;;;;5100741;28;20099;-78
2021/08/04 10:03:29;;;;;;;1.65;1.20;;;;;;;;;;5101035;28;20016;-80
2021/08/04 10:05:55;;;;;;;0.95;0.95;;;;;;;;;;5099214;28;20103;-78
2021/08/04 10:08:22;;;;;;;1.00;1.00;;;;;;;;;;5098032;28;20396;-79
2021/08/04 10:10:52;;;;;;;1.17;0.93;;;;;;;;;;5101142;28;20025;-79
2021/08/04 10:13:19;;;;;;;0.80;0.80;;;;;;;;;;5099654;28;20330;-78
2021/08/04 10:15:50;;;;;;;1.75;0.93;;;;;;;;;;5100097;28;20020;-79
2021/08/04 10:18:18;;;;;;;0.90;0.90;;;;;;;;;;5085166;28;20016;-79
2021/08/04 10:20:45;;;;;;;0.73;0.73;;;;;;;;;;5101524;28;20035;-80
2021/08/04 10:23:15;;;;;;;1.00;1.00;;;;;;;;;;5113079;28;20024;-79
2021/08/04 10:25:42;;;;;;;0.88;0.88;;;;;;;;;;5113816;28;20020;-78
2021/08/04 10:28:08;;;;;;;1.00;0.85;;;;;;;;;;5108092;28;20114;-78
2021/08/04 10:30:35;;;;;;;0.70;0.70;;;;;;;;;;5093100;28;20032;-81
2021/08/04 10:33:03;;;;;;;0.60;0.57;;;;;;;;;;5081929;28;20035;-78
2021/08/04 10:35:29;;;;;;;0.70;0.70;;;;;;;;;;5081326;28;20024;-78
2021/08/04 10:37:56;;;;;;;0.88;0.88;;;;;;;;;;5085425;28;20035;-78
2021/08/04 10:40:25;;;;;;;1.75;0.85;;;;;;;;;;5091879;28;20024;-78
2021/08/04 10:42:51;;;;;;;0.90;0.90;;;;;;;;;;5083040;28;20146;-78
2021/08/04 10:45:22;;;;;;;0.68;0.68;;;;;;;;;;5093779;28;20032;-77
2021/08/04 10:47:48;;;;;;;0.70;0.70;;;;;;;;;;5086895;28;20024;-77
2021/08/04 10:50:14;;;;;;;0.70;0.70;;;;;;;;;;5085921;28;20179;-79
2021/08/04 10:53:02;;;;;;;0.82;0.82;;;;;;;;;;5093995;28;20032;-78
2021/08/04 10:55:29;;;;;;;1.30;0.90;;;;;;;;;;5082769;28;20059;-78
2021/08/04 10:58:08;;;;;;;0.68;0.68;;;;;;;;;;5074726;28;20112;-78
2021/08/04 11:00:34;;;;;;;1.00;0.93;;;;;;;;;;5079817;28;20024;-79
2021/08/04 11:03:00;;;;;;;0.85;0.85;;;;;;;;;;5073919;28;20039;-79
2021/08/04 11:05:46;;;;;;;0.70;0.70;;;;;;;;;;5075367;28;20115;-78
2021/08/04 11:08:17;;;;;;;0.90;0.90;;;;;;;;;;5076002;28;20420;-78
2021/08/04 11:10:43;;;;;;;0.90;0.90;;;;;;;;;;5073951;28;20017;-78
2021/08/04 11:13:09;;;;;;;1.10;0.98;;;;;;;;;;5075142;28;20042;-78
2021/08/04 11:15:36;;;;;;;1.55;1.23;;;;;;;;;;5082736;28;20059;-78
2021/08/04 11:18:07;;;;;;;1.20;0.88;;;;;;;;;;5083613;28;20031;-79
2021/08/04 11:20:35;;;;;;;1.20;0.95;;;;;;;;;;5081441;28;20032;-78
2021/08/04 11:23:03;;;;;;;1.08;1.00;;;;;;;;;;5086257;28;20113;-78
2021/08/04 11:25:38;;;;;;;0.98;0.93;;;;;;;;;;5095655;28;20024;-79
2021/08/04 11:28:05;;;;;;;0.70;0.70;;;;;;;;;;5095055;28;20028;-78
2021/08/04 11:30:39;;;;;;;1.08;0.98;;;;;;;;;;5100423;28;20437;-79
2021/08/04 11:33:27;;;;;;;2.97;1.23;;;;;;;;;;5100377;28;20027;-79
2021/08/04 11:36:08;;;;;;;1.05;0.95;;;;;;;;;;5094127;28;20085;-79
2021/08/04 11:38:55;;;;;;;1.27;1.17;;;;;;;;;;5085738;28;20474;-79
2021/08/04 11:41:27;;;;;;;0.90;0.90;;;;;;;;;;5076449;28;20055;-78
2021/08/04 11:44:01;;;;;;;1.58;0.88;;;;;;;;;;5091692;28;20016;-79
2021/08/04 11:46:27;;;;;;;0.80;0.70;;;;;;;;;;5092007;28;20738;-80
2021/08/04 11:48:53;;;;;;;0.85;0.85;;;;;;;;;;5084124;28;20043;-79
2021/08/04 11:51:40;;;;;;;0.90;0.90;;;;;;;;;;5083573;28;20095;-78
2021/08/04 11:54:06;;;;;;;1.05;0.77;;;;;;;;;;5082449;28;20016;-79
2021/08/04 11:56:33;;;;;;;1.35;1.10;;;;;;;;;;5074438;28;20070;-79
2021/08/04 11:59:00;;;;;;;0.80;0.80;;;;;;;;;;5074068;28;20476;-78
2021/08/04 12:01:26;;;;;;;0.77;0.77;;;;;;;;;;5087822;28;20051;-78
2021/08/04 12:04:18;;;;;;;0.85;0.85;;;;;;;;;;5095447;28;20036;-79
2021/08/04 12:06:55;;;;;;;1.42;0.90;;;;;;;;;;5085388;28;20507;-78
2021/08/04 12:09:25;;;;;;;0.80;0.80;;;;;;;;;;5075052;28;20063;-78
2021/08/04 12:11:52;;;;;;;0.90;0.90;;;;;;;;;;5075107;28;20025;-78
2021/08/04 12:14:20;;;;;;;0.93;0.88;;;;;;;;;;5076532;28;20531;-79
2021/08/04 12:16:59;;;;;;;1.20;0.85;;;;;;;;;;5084132;28;20020;-77
2021/08/04 12:19:25;;;;;;;0.88;0.88;;;;;;;;;;5089619;28;20066;-78
2021/08/04 12:21:52;;;;;;;0.90;0.90;;;;;;;;;;5098526;28;20032;-79
2021/08/04 12:24:18;;;;;;;0.80;0.80;;;;;;;;;;5098640;28;20047;-79
2021/08/04 12:26:46;;;;;;;0.95;0.85;;;;;;;;;;5098547;28;20052;-79
2021/08/04 12:29:15;;;;;;;1.35;1.00;;;;;;;;;;5098636;28;20020;-79
2021/08/04 12:31:41;;;;;;;1.02;0.80;;;;;;;;;;5093909;28;20044;-80
2021/08/04 12:34:08;;;;;;;1.58;0.85;;;;;;;;;;5077657;28;20051;-78
2021/08/04 12:36:46;;;;;;;0.90;0.90;;;;;;;;;;5081298;28;20461;-78
2021/08/04 12:39:12;;;;;;;1.35;0.93;;;;;;;;;;5079237;28;20032;-79
2021/08/04 12:41:38;;;;;;;0.95;0.90;;;;;;;;;;5085691;28;20036;-79
2021/08/04 12:44:06;;;;;;;3.65;1.20;;;;;;;;;;5087737;28;20032;-79
2021/08/04 12:46:33;;;;;;;0.85;0.80;;;;;;;;;;5086271;28;20028;-79
2021/08/04 12:49:00;;;;;;;0.90;0.90;;;;;;;;;;5087073;28;20077;-78
2021/08/04 12:51:26;;;;;;;0.93;0.77;;;;;;;;;;5087741;28;20024;-78
2021/08/04 12:53:56;;;;;;;2.00;0.88;;;;;;;;;;5089733;28;20016;-78
2021/08/04 12:56:29;;;;;;;1.30;1.20;;;;;;;;;;5089960;28;20046;-77
2021/08/04 12:58:58;;;;;;;1.92;1.20;;;;;;;;;;5087818;28;20020;-78
2021/08/04 13:01:26;;;;;;;1.15;0.80;;;;;;;;;;5089493;28;20032;-78
2021/08/04 13:03:52;;;;;;;1.85;0.63;;;;;;;;;;5090616;28;20025;-78
2021/08/04 13:06:20;;;;;;;0.73;0.63;;;;;;;;;;5090161;28;20020;-78
2021/08/04 13:08:46;;;;;;;0.95;0.80;;;;;;;;;;5087421;28;20027;-78
2021/08/04 13:11:25;;;;;;;1.48;0.93;;;;;;;;;;5088836;28;20016;-78
2021/08/04 13:14:06;;;;;;;1.10;0.80;;;;;;;;;;5089629;28;20017;-78
2021/08/04 13:16:33;;;;;;;0.70;0.70;;;;;;;;;;5084946;28;20111;-77
2021/08/04 13:18:59;;;;;;;0.70;0.70;;;;;;;;;;5089399;28;20016;-78
2021/08/04 13:21:25;;;;;;;0.82;0.82;;;;;;;;;;5112034;28;20131;-78
2021/08/04 13:23:51;;;;;;;0.80;0.80;;;;;;;;;;5077114;28;20028;-78
2021/08/04 13:26:21;;;;;;;1.85;0.95;;;;;;;;;;5078863;28;20032;-77
2021/08/04 13:28:48;;;;;;;0.88;0.88;;;;;;;;;;5081092;28;20048;-78
2021/08/04 13:31:18;;;;;;;1.50;0.80;;;;;;;;;;5093997;28;20032;-79
2021/08/04 13:33:47;;;;;;;0.77;0.77;;;;;;;;;;5085949;28;20496;-79
2021/08/04 13:36:13;;;;;;;0.85;0.85;;;;;;;;;;5083863;28;20123;-78
2021/08/04 13:38:39;;;;;;;0.90;0.90;;;;;;;;;;5091851;28;20048;-79
2021/08/04 13:41:06;;;;;;;0.73;0.73;;;;;;;;;;5097844;28;20024;-79
2021/08/04 13:43:32;;;;;;;1.00;0.90;;;;;;;;;;5092936;28;20502;-79
2021/08/04 13:45:58;;;;;;;0.77;0.77;;;;;;;;;;5088809;28;20046;-79
2021/08/04 13:48:25;;;;;;;0.80;0.80;;;;;;;;;;5087629;28;20025;-78
2021/08/04 13:50:52;;;;;;;1.42;1.20;;;;;;;;;;5086293;28;20489;-78
2021/08/04 13:53:19;;;;;;;0.82;0.82;;;;;;;;;;5087452;28;20469;-80
2021/08/04 13:55:45;;;;;;;1.48;1.00;;;;;;;;;;5088101;28;20020;-80
2021/08/04 13:58:11;;;;;;;1.42;1.00;;;;;;;;;;5085712;28;20024;-79
2021/08/04 14:00:38;;;;;;;0.82;0.80;;;;;;;;;;5094559;28;20032;-79
2021/08/04 14:03:08;;;;;;;1.30;1.20;;;;;;;;;;5086916;28;20029;-78
2021/08/04 14:05:39;;;;;;;3.35;0.88;;;;;;;;;;5086999;28;20029;-78
2021/08/04 14:08:06;;;;;;;1.67;1.10;;;;;;;;;;5085448;28;20059;-78
2021/08/04 14:10:32;;;;;;;0.90;0.90;;;;;;;;;;5082870;28;20082;-79
2021/08/04 14:12:58;;;;;;;1.05;1.05;;;;;;;;;;5086865;28;20465;-78
2021/08/04 14:15:25;;;;;;;0.80;0.80;;;;;;;;;;5084640;28;20024;-79
2021/08/04 14:17:51;;;;;;;1.70;1.20;;;;;;;;;;5081695;28;20043;-79
2021/08/04 14:20:17;;;;;;;1.25;1.15;;;;;;;;;;5082965;28;20101;-79
2021/08/04 14:22:44;;;;;;;1.05;0.90;;;;;;;;;;5086280;28;20028;-79
2021/08/04 14:25:14;;;;;;;0.88;0.70;;;;;;;;;;5078113;28;20076;-80
2021/08/04 14:27:40;;;;;;;1.27;1.00;;;;;;;;;;5082095;28;20021;-79
2021/08/04 14:30:07;;;;;;;1.65;1.17;;;;;;;;;;5085110;28;20020;-79
2021/08/04 14:32:33;;;;;;;1.73;0.95;;;;;;;;;;5077053;28;20116;-79
2021/08/04 14:35:00;;;;;;;1.50;1.30;;;;;;;;;;5077537;28;20081;-79
2021/08/04 14:37:26;;;;;;;2.15;1.05;;;;;;;;;;5077536;28;20024;-78
2021/08/04 14:39:54;;;;;;;1.38;1.00;;;;;;;;;;5092827;28;20027;-80
2021/08/04 14:42:20;;;;;;;1.17;1.10;;;;;;;;;;5077265;28;20453;-79
2021/08/04 14:44:46;;;;;;;1.20;0.98;;;;;;;;;;5078085;28;20028;-79
2021/08/04 14:47:12;;;;;;;1.42;1.27;;;;;;;;;;5083494;28;20029;-78